sensor_id;sensor_type;location;lat;lon;timestamp;P1;durP1;ratioP1;P2;durP2;ratioP2
71125;SDS011;58785;55.566;38.058;2023-05-14T00:01:41;7.27;;;2.20;;
71125;SDS011;58785;55.566;38.058;2023-05-14T00:04:06;5.57;;;2.30;;
71125;SDS011;58785;55.566;38.058;2023-05-14T00:06:32;12.10;;;2.77;;
71125;SDS011;58785;55.566;38.058;2023-05-14T00:08:58;12.77;;;2.72;;
71125;SDS011;58785;55.566;38.058;2023-05-14T00:11:23;9.23;;;2.80;;
71125;SDS011;58785;55.566;38.058;2023-05-14T00:13:49;7.33;;;2.50;;
71125;SDS011;58785;55.566;38.058;2023-05-14T00:16:15;6.10;;;2.15;;
71125;SDS011;58785;55.566;38.058;2023-05-14T00:18:41;6.88;;;2.50;;
71125;SDS011;58785;55.566;38.058;2023-05-14T00:21:07;6.27;;;1.90;;
71125;SDS011;58785;55.566;38.058;2023-05-14T00:23:32;7.20;;;2.47;;
71125;SDS011;58785;55.566;38.058;2023-05-14T00:25:58;8.00;;;2.70;;
71125;SDS011;58785;55.566;38.058;2023-05-14T00:28:24;7.25;;;2.28;;
71125;SDS011;58785;55.566;38.058;2023-05-14T00:30:50;6.30;;;2.33;;
71125;SDS011;58785;55.566;38.058;2023-05-14T00:33:17;5.60;;;2.13;;
71125;SDS011;58785;55.566;38.058;2023-05-14T00:35:43;7.72;;;2.50;;
71125;SDS011;58785;55.566;38.058;2023-05-14T00:38:09;5.25;;;1.83;;
71125;SDS011;58785;55.566;38.058;2023-05-14T00:40:41;8.03;;;2.23;;
71125;SDS011;58785;55.566;38.058;2023-05-14T00:43:10;10.90;;;2.25;;
71125;SDS011;58785;55.566;38.058;2023-05-14T00:45:36;8.95;;;2.20;;
71125;SDS011;58785;55.566;38.058;2023-05-14T00:48:02;6.60;;;2.08;;
71125;SDS011;58785;55.566;38.058;2023-05-14T00:50:28;8.37;;;2.13;;
71125;SDS011;58785;55.566;38.058;2023-05-14T00:52:54;7.38;;;2.40;;
71125;SDS011;58785;55.566;38.058;2023-05-14T00:55:19;11.00;;;2.63;;
71125;SDS011;58785;55.566;38.058;2023-05-14T00:57:45;10.30;;;2.53;;
71125;SDS011;58785;55.566;38.058;2023-05-14T01:00:11;6.22;;;2.20;;
71125;SDS011;58785;55.566;38.058;2023-05-14T01:02:37;5.80;;;2.23;;
71125;SDS011;58785;55.566;38.058;2023-05-14T01:05:03;6.07;;;2.10;;
71125;SDS011;58785;55.566;38.058;2023-05-14T01:07:35;10.15;;;2.35;;
71125;SDS011;58785;55.566;38.058;2023-05-14T01:10:07;6.47;;;2.30;;
71125;SDS011;58785;55.566;38.058;2023-05-14T01:15:36;5.47;;;2.10;;
71125;SDS011;58785;55.566;38.058;2023-05-14T01:18:06;8.02;;;2.15;;
71125;SDS011;58785;55.566;38.058;2023-05-14T01:20:33;6.63;;;2.42;;
71125;SDS011;58785;55.566;38.058;2023-05-14T01:23:00;6.13;;;2.27;;
71125;SDS011;58785;55.566;38.058;2023-05-14T01:25:25;5.63;;;1.98;;
71125;SDS011;58785;55.566;38.058;2023-05-14T01:30:34;5.38;;;2.45;;
71125;SDS011;58785;55.566;38.058;2023-05-14T01:33:02;8.95;;;2.58;;
71125;SDS011;58785;55.566;38.058;2023-05-14T01:35:31;7.45;;;2.47;;
71125;SDS011;58785;55.566;38.058;2023-05-14T01:38:01;5.75;;;1.95;;
71125;SDS011;58785;55.566;38.058;2023-05-14T01:40:28;9.87;;;2.83;;
71125;SDS011;58785;55.566;38.058;2023-05-14T01:42:56;8.68;;;2.28;;
71125;SDS011;58785;55.566;38.058;2023-05-14T01:45:23;7.90;;;2.25;;
71125;SDS011;58785;55.566;38.058;2023-05-14T01:47:49;6.50;;;2.40;;
71125;SDS011;58785;55.566;38.058;2023-05-14T01:50:15;6.18;;;2.60;;
71125;SDS011;58785;55.566;38.058;2023-05-14T01:52:41;6.07;;;2.17;;
71125;SDS011;58785;55.566;38.058;2023-05-14T01:55:07;10.38;;;3.17;;
71125;SDS011;58785;55.566;38.058;2023-05-14T01:57:33;12.20;;;4.97;;
71125;SDS011;58785;55.566;38.058;2023-05-14T01:59:59;10.03;;;4.60;;
71125;SDS011;58785;55.566;38.058;2023-05-14T02:02:24;9.45;;;3.92;;
71125;SDS011;58785;55.566;38.058;2023-05-14T02:04:50;8.87;;;4.40;;
71125;SDS011;58785;55.566;38.058;2023-05-14T02:07:16;9.70;;;3.10;;
71125;SDS011;58785;55.566;38.058;2023-05-14T02:09:41;8.07;;;2.90;;
71125;SDS011;58785;55.566;38.058;2023-05-14T02:12:07;6.38;;;2.70;;
71125;SDS011;58785;55.566;38.058;2023-05-14T02:14:33;7.38;;;2.28;;
71125;SDS011;58785;55.566;38.058;2023-05-14T02:17:00;6.97;;;2.55;;
71125;SDS011;58785;55.566;38.058;2023-05-14T02:19:26;7.67;;;2.57;;
71125;SDS011;58785;55.566;38.058;2023-05-14T02:22:11;7.15;;;2.15;;
71125;SDS011;58785;55.566;38.058;2023-05-14T02:24:37;6.45;;;2.20;;
71125;SDS011;58785;55.566;38.058;2023-05-14T02:27:03;5.57;;;2.07;;
71125;SDS011;58785;55.566;38.058;2023-05-14T02:29:29;6.53;;;2.50;;
71125;SDS011;58785;55.566;38.058;2023-05-14T02:31:55;6.97;;;2.75;;
71125;SDS011;58785;55.566;38.058;2023-05-14T02:34:22;7.50;;;2.33;;
71125;SDS011;58785;55.566;38.058;2023-05-14T02:36:47;6.47;;;2.25;;
71125;SDS011;58785;55.566;38.058;2023-05-14T02:39:13;13.50;;;2.70;;
71125;SDS011;58785;55.566;38.058;2023-05-14T02:41:39;6.90;;;2.53;;
71125;SDS011;58785;55.566;38.058;2023-05-14T02:44:04;9.43;;;2.80;;
71125;SDS011;58785;55.566;38.058;2023-05-14T02:46:30;7.87;;;2.70;;
71125;SDS011;58785;55.566;38.058;2023-05-14T02:48:56;8.50;;;2.80;;
71125;SDS011;58785;55.566;38.058;2023-05-14T02:51:22;8.25;;;2.50;;
71125;SDS011;58785;55.566;38.058;2023-05-14T02:53:48;7.00;;;2.63;;
71125;SDS011;58785;55.566;38.058;2023-05-14T02:56:14;7.68;;;2.42;;
71125;SDS011;58785;55.566;38.058;2023-05-14T02:58:39;7.47;;;2.70;;
71125;SDS011;58785;55.566;38.058;2023-05-14T03:01:05;7.18;;;2.58;;
71125;SDS011;58785;55.566;38.058;2023-05-14T03:03:31;10.27;;;2.80;;
71125;SDS011;58785;55.566;38.058;2023-05-14T03:05:57;7.60;;;2.33;;
71125;SDS011;58785;55.566;38.058;2023-05-14T03:08:23;6.85;;;2.70;;
71125;SDS011;58785;55.566;38.058;2023-05-14T03:10:48;6.57;;;2.73;;
71125;SDS011;58785;55.566;38.058;2023-05-14T03:13:14;7.18;;;2.78;;
71125;SDS011;58785;55.566;38.058;2023-05-14T03:15:44;6.70;;;2.80;;
71125;SDS011;58785;55.566;38.058;2023-05-14T03:18:11;9.98;;;2.92;;
71125;SDS011;58785;55.566;38.058;2023-05-14T03:20:40;6.95;;;2.38;;
71125;SDS011;58785;55.566;38.058;2023-05-14T03:23:05;6.43;;;2.70;;
71125;SDS011;58785;55.566;38.058;2023-05-14T03:25:31;6.33;;;2.60;;
71125;SDS011;58785;55.566;38.058;2023-05-14T03:27:58;5.80;;;2.50;;
71125;SDS011;58785;55.566;38.058;2023-05-14T03:30:24;8.27;;;3.25;;
71125;SDS011;58785;55.566;38.058;2023-05-14T03:32:50;6.15;;;2.65;;
71125;SDS011;58785;55.566;38.058;2023-05-14T03:35:16;7.83;;;2.63;;
71125;SDS011;58785;55.566;38.058;2023-05-14T03:37:42;7.47;;;2.13;;
71125;SDS011;58785;55.566;38.058;2023-05-14T03:40:08;8.00;;;3.20;;
71125;SDS011;58785;55.566;38.058;2023-05-14T03:42:33;6.90;;;2.28;;
71125;SDS011;58785;55.566;38.058;2023-05-14T03:44:59;5.72;;;2.22;;
71125;SDS011;58785;55.566;38.058;2023-05-14T03:47:25;7.27;;;2.60;;
71125;SDS011;58785;55.566;38.058;2023-05-14T03:49:50;6.25;;;2.22;;
71125;SDS011;58785;55.566;38.058;2023-05-14T03:52:16;5.80;;;2.23;;
71125;SDS011;58785;55.566;38.058;2023-05-14T03:54:42;6.15;;;2.65;;
71125;SDS011;58785;55.566;38.058;2023-05-14T03:57:07;6.97;;;2.90;;
71125;SDS011;58785;55.566;38.058;2023-05-14T03:59:33;6.57;;;2.33;;
71125;SDS011;58785;55.566;38.058;2023-05-14T04:01:59;8.10;;;1.80;;
71125;SDS011;58785;55.566;38.058;2023-05-14T04:04:25;6.38;;;2.05;;
71125;SDS011;58785;55.566;38.058;2023-05-14T04:06:50;5.43;;;2.00;;
71125;SDS011;58785;55.566;38.058;2023-05-14T04:09:16;6.05;;;1.90;;
71125;SDS011;58785;55.566;38.058;2023-05-14T04:11:41;5.10;;;2.00;;
71125;SDS011;58785;55.566;38.058;2023-05-14T04:14:07;6.27;;;2.03;;
71125;SDS011;58785;55.566;38.058;2023-05-14T04:16:32;7.93;;;2.22;;
71125;SDS011;58785;55.566;38.058;2023-05-14T04:18:59;7.13;;;2.30;;
71125;SDS011;58785;55.566;38.058;2023-05-14T04:21:26;6.35;;;2.20;;
71125;SDS011;58785;55.566;38.058;2023-05-14T04:23:52;6.85;;;1.92;;
71125;SDS011;58785;55.566;38.058;2023-05-14T04:26:18;5.80;;;2.22;;
71125;SDS011;58785;55.566;38.058;2023-05-14T04:28:44;4.93;;;2.20;;
71125;SDS011;58785;55.566;38.058;2023-05-14T04:31:09;5.38;;;2.25;;
71125;SDS011;58785;55.566;38.058;2023-05-14T04:33:36;6.83;;;2.00;;
71125;SDS011;58785;55.566;38.058;2023-05-14T04:36:01;5.43;;;2.13;;
71125;SDS011;58785;55.566;38.058;2023-05-14T04:38:29;6.68;;;2.22;;
71125;SDS011;58785;55.566;38.058;2023-05-14T04:40:56;8.23;;;2.20;;
71125;SDS011;58785;55.566;38.058;2023-05-14T04:43:22;4.55;;;1.70;;
71125;SDS011;58785;55.566;38.058;2023-05-14T04:45:48;5.68;;;2.30;;
71125;SDS011;58785;55.566;38.058;2023-05-14T04:48:14;6.03;;;2.05;;
71125;SDS011;58785;55.566;38.058;2023-05-14T04:50:40;6.97;;;1.93;;
71125;SDS011;58785;55.566;38.058;2023-05-14T04:53:06;4.75;;;1.77;;
71125;SDS011;58785;55.566;38.058;2023-05-14T04:55:31;6.28;;;2.50;;
71125;SDS011;58785;55.566;38.058;2023-05-14T04:57:57;5.30;;;1.90;;
71125;SDS011;58785;55.566;38.058;2023-05-14T05:00:23;5.00;;;1.90;;
71125;SDS011;58785;55.566;38.058;2023-05-14T05:02:48;5.17;;;1.90;;
71125;SDS011;58785;55.566;38.058;2023-05-14T05:05:15;6.75;;;2.20;;
71125;SDS011;58785;55.566;38.058;2023-05-14T05:07:40;5.13;;;1.60;;
71125;SDS011;58785;55.566;38.058;2023-05-14T05:10:06;4.93;;;1.70;;
71125;SDS011;58785;55.566;38.058;2023-05-14T05:12:33;4.97;;;2.13;;
71125;SDS011;58785;55.566;38.058;2023-05-14T05:15:00;4.70;;;1.75;;
71125;SDS011;58785;55.566;38.058;2023-05-14T05:17:28;8.30;;;1.85;;
71125;SDS011;58785;55.566;38.058;2023-05-14T05:19:54;5.30;;;2.03;;
71125;SDS011;58785;55.566;38.058;2023-05-14T05:22:20;5.37;;;2.60;;
71125;SDS011;58785;55.566;38.058;2023-05-14T05:24:45;5.85;;;1.75;;
71125;SDS011;58785;55.566;38.058;2023-05-14T05:27:11;5.72;;;1.88;;
71125;SDS011;58785;55.566;38.058;2023-05-14T05:29:37;5.03;;;1.70;;
71125;SDS011;58785;55.566;38.058;2023-05-14T05:32:03;4.78;;;1.70;;
71125;SDS011;58785;55.566;38.058;2023-05-14T05:34:30;4.50;;;1.77;;
71125;SDS011;58785;55.566;38.058;2023-05-14T05:36:56;5.00;;;1.80;;
71125;SDS011;58785;55.566;38.058;2023-05-14T05:39:22;4.18;;;1.60;;
71125;SDS011;58785;55.566;38.058;2023-05-14T05:41:47;8.70;;;2.67;;
71125;SDS011;58785;55.566;38.058;2023-05-14T05:44:13;4.87;;;1.87;;
71125;SDS011;58785;55.566;38.058;2023-05-14T05:46:38;4.30;;;1.70;;
71125;SDS011;58785;55.566;38.058;2023-05-14T05:49:04;5.03;;;1.67;;
71125;SDS011;58785;55.566;38.058;2023-05-14T05:51:30;4.32;;;1.70;;
71125;SDS011;58785;55.566;38.058;2023-05-14T05:53:57;7.20;;;1.80;;
71125;SDS011;58785;55.566;38.058;2023-05-14T05:56:22;6.00;;;1.37;;
71125;SDS011;58785;55.566;38.058;2023-05-14T05:58:48;7.60;;;1.75;;
71125;SDS011;58785;55.566;38.058;2023-05-14T06:01:14;4.40;;;1.63;;
71125;SDS011;58785;55.566;38.058;2023-05-14T06:03:40;4.25;;;1.60;;
71125;SDS011;58785;55.566;38.058;2023-05-14T06:06:05;4.03;;;1.33;;
71125;SDS011;58785;55.566;38.058;2023-05-14T06:08:31;4.97;;;1.57;;
71125;SDS011;58785;55.566;38.058;2023-05-14T06:10:57;4.53;;;1.80;;
71125;SDS011;58785;55.566;38.058;2023-05-14T06:13:22;6.00;;;1.50;;
71125;SDS011;58785;55.566;38.058;2023-05-14T06:15:48;5.50;;;1.30;;
71125;SDS011;58785;55.566;38.058;2023-05-14T06:18:14;4.87;;;1.37;;
71125;SDS011;58785;55.566;38.058;2023-05-14T06:20:39;4.53;;;1.48;;
71125;SDS011;58785;55.566;38.058;2023-05-14T06:23:06;4.20;;;1.52;;
71125;SDS011;58785;55.566;38.058;2023-05-14T06:25:32;4.80;;;1.60;;
71125;SDS011;58785;55.566;38.058;2023-05-14T06:27:58;4.22;;;1.55;;
71125;SDS011;58785;55.566;38.058;2023-05-14T06:30:24;5.75;;;1.50;;
71125;SDS011;58785;55.566;38.058;2023-05-14T06:32:50;4.40;;;1.60;;
71125;SDS011;58785;55.566;38.058;2023-05-14T06:35:18;5.03;;;1.58;;
71125;SDS011;58785;55.566;38.058;2023-05-14T06:37:44;4.70;;;1.57;;
71125;SDS011;58785;55.566;38.058;2023-05-14T06:40:10;8.05;;;1.58;;
71125;SDS011;58785;55.566;38.058;2023-05-14T06:42:37;5.97;;;1.90;;
71125;SDS011;58785;55.566;38.058;2023-05-14T06:45:03;3.25;;;1.15;;
71125;SDS011;58785;55.566;38.058;2023-05-14T06:47:31;4.47;;;1.70;;
71125;SDS011;58785;55.566;38.058;2023-05-14T06:49:57;4.03;;;1.50;;
71125;SDS011;58785;55.566;38.058;2023-05-14T06:52:25;4.00;;;1.42;;
71125;SDS011;58785;55.566;38.058;2023-05-14T06:54:51;4.55;;;1.52;;
71125;SDS011;58785;55.566;38.058;2023-05-14T06:57:16;4.40;;;1.60;;
71125;SDS011;58785;55.566;38.058;2023-05-14T06:59:42;8.32;;;1.30;;
71125;SDS011;58785;55.566;38.058;2023-05-14T07:02:07;3.90;;;1.13;;
71125;SDS011;58785;55.566;38.058;2023-05-14T07:04:33;4.40;;;1.30;;
71125;SDS011;58785;55.566;38.058;2023-05-14T07:06:59;4.17;;;1.63;;
71125;SDS011;58785;55.566;38.058;2023-05-14T07:09:24;3.13;;;1.13;;
71125;SDS011;58785;55.566;38.058;2023-05-14T07:11:50;4.40;;;1.90;;
71125;SDS011;58785;55.566;38.058;2023-05-14T07:14:16;4.28;;;1.30;;
71125;SDS011;58785;55.566;38.058;2023-05-14T07:16:41;3.60;;;1.20;;
71125;SDS011;58785;55.566;38.058;2023-05-14T07:19:07;5.55;;;1.40;;
71125;SDS011;58785;55.566;38.058;2023-05-14T07:21:33;4.60;;;1.80;;
71125;SDS011;58785;55.566;38.058;2023-05-14T07:24:00;3.20;;;1.10;;
71125;SDS011;58785;55.566;38.058;2023-05-14T07:26:26;6.25;;;1.40;;
71125;SDS011;58785;55.566;38.058;2023-05-14T07:28:51;6.80;;;1.50;;
71125;SDS011;58785;55.566;38.058;2023-05-14T07:31:17;4.88;;;1.70;;
71125;SDS011;58785;55.566;38.058;2023-05-14T07:33:43;4.00;;;1.50;;
71125;SDS011;58785;55.566;38.058;2023-05-14T07:36:09;3.83;;;1.30;;
71125;SDS011;58785;55.566;38.058;2023-05-14T07:38:34;8.43;;;1.43;;
71125;SDS011;58785;55.566;38.058;2023-05-14T07:41:00;3.85;;;1.33;;
71125;SDS011;58785;55.566;38.058;2023-05-14T07:43:26;4.28;;;1.40;;
71125;SDS011;58785;55.566;38.058;2023-05-14T07:45:51;4.10;;;1.60;;
71125;SDS011;58785;55.566;38.058;2023-05-14T07:48:17;6.47;;;1.40;;
71125;SDS011;58785;55.566;38.058;2023-05-14T07:50:43;6.50;;;1.50;;
71125;SDS011;58785;55.566;38.058;2023-05-14T07:53:09;4.30;;;1.60;;
71125;SDS011;58785;55.566;38.058;2023-05-14T07:55:35;4.10;;;1.60;;
71125;SDS011;58785;55.566;38.058;2023-05-14T07:58:01;4.93;;;1.50;;
71125;SDS011;58785;55.566;38.058;2023-05-14T08:00:26;4.57;;;1.70;;
71125;SDS011;58785;55.566;38.058;2023-05-14T08:02:53;4.00;;;1.37;;
71125;SDS011;58785;55.566;38.058;2023-05-14T08:05:19;3.85;;;1.27;;
71125;SDS011;58785;55.566;38.058;2023-05-14T08:07:45;3.65;;;1.33;;
71125;SDS011;58785;55.566;38.058;2023-05-14T08:10:10;3.97;;;1.60;;
71125;SDS011;58785;55.566;38.058;2023-05-14T08:12:36;5.20;;;1.30;;
71125;SDS011;58785;55.566;38.058;2023-05-14T08:15:03;4.00;;;1.37;;
71125;SDS011;58785;55.566;38.058;2023-05-14T08:17:31;6.18;;;1.25;;
71125;SDS011;58785;55.566;38.058;2023-05-14T08:19:57;4.35;;;1.27;;
71125;SDS011;58785;55.566;38.058;2023-05-14T08:22:22;4.53;;;1.50;;
71125;SDS011;58785;55.566;38.058;2023-05-14T08:24:48;4.20;;;1.58;;
71125;SDS011;58785;55.566;38.058;2023-05-14T08:27:13;3.50;;;1.17;;
71125;SDS011;58785;55.566;38.058;2023-05-14T08:29:40;4.60;;;1.52;;
71125;SDS011;58785;55.566;38.058;2023-05-14T08:32:07;4.50;;;1.73;;
71125;SDS011;58785;55.566;38.058;2023-05-14T08:34:34;8.03;;;1.60;;
71125;SDS011;58785;55.566;38.058;2023-05-14T08:37:00;5.55;;;1.58;;
71125;SDS011;58785;55.566;38.058;2023-05-14T08:39:26;4.47;;;1.27;;
71125;SDS011;58785;55.566;38.058;2023-05-14T08:41:52;4.43;;;1.23;;
71125;SDS011;58785;55.566;38.058;2023-05-14T08:44:32;4.55;;;1.45;;
71125;SDS011;58785;55.566;38.058;2023-05-14T08:47:03;4.65;;;1.50;;
71125;SDS011;58785;55.566;38.058;2023-05-14T08:49:42;3.97;;;1.30;;
71125;SDS011;58785;55.566;38.058;2023-05-14T08:52:11;5.60;;;1.30;;
71125;SDS011;58785;55.566;38.058;2023-05-14T08:54:38;4.13;;;1.00;;
71125;SDS011;58785;55.566;38.058;2023-05-14T08:57:04;4.88;;;1.55;;
71125;SDS011;58785;55.566;38.058;2023-05-14T08:59:33;3.70;;;1.27;;
71125;SDS011;58785;55.566;38.058;2023-05-14T09:02:00;3.78;;;1.30;;
71125;SDS011;58785;55.566;38.058;2023-05-14T09:04:27;3.30;;;1.23;;
71125;SDS011;58785;55.566;38.058;2023-05-14T09:06:54;4.45;;;1.30;;
71125;SDS011;58785;55.566;38.058;2023-05-14T09:09:20;3.80;;;1.40;;
71125;SDS011;58785;55.566;38.058;2023-05-14T09:11:49;3.85;;;1.10;;
71125;SDS011;58785;55.566;38.058;2023-05-14T09:14:16;4.67;;;1.50;;
71125;SDS011;58785;55.566;38.058;2023-05-14T09:16:43;3.90;;;1.30;;
71125;SDS011;58785;55.566;38.058;2023-05-14T09:19:10;4.43;;;1.40;;
71125;SDS011;58785;55.566;38.058;2023-05-14T09:21:37;3.15;;;1.10;;
71125;SDS011;58785;55.566;38.058;2023-05-14T09:24:04;3.70;;;0.93;;
71125;SDS011;58785;55.566;38.058;2023-05-14T09:26:31;3.05;;;0.90;;
71125;SDS011;58785;55.566;38.058;2023-05-14T09:28:58;4.88;;;1.25;;
71125;SDS011;58785;55.566;38.058;2023-05-14T09:31:26;4.28;;;1.20;;
71125;SDS011;58785;55.566;38.058;2023-05-14T09:33:56;3.75;;;1.23;;
71125;SDS011;58785;55.566;38.058;2023-05-14T09:36:22;4.53;;;1.40;;
71125;SDS011;58785;55.566;38.058;2023-05-14T09:38:49;4.38;;;1.10;;
71125;SDS011;58785;55.566;38.058;2023-05-14T09:41:15;4.93;;;1.50;;
71125;SDS011;58785;55.566;38.058;2023-05-14T09:43:41;5.15;;;1.80;;
71125;SDS011;58785;55.566;38.058;2023-05-14T09:46:07;5.87;;;1.70;;
71125;SDS011;58785;55.566;38.058;2023-05-14T09:48:32;4.43;;;1.13;;
71125;SDS011;58785;55.566;38.058;2023-05-14T09:50:58;4.03;;;1.10;;
71125;SDS011;58785;55.566;38.058;2023-05-14T09:53:24;3.65;;;1.10;;
71125;SDS011;58785;55.566;38.058;2023-05-14T09:55:50;4.28;;;1.10;;
71125;SDS011;58785;55.566;38.058;2023-05-14T09:58:16;3.70;;;1.40;;
71125;SDS011;58785;55.566;38.058;2023-05-14T10:00:43;4.50;;;1.50;;
71125;SDS011;58785;55.566;38.058;2023-05-14T10:03:12;3.90;;;1.25;;
71125;SDS011;58785;55.566;38.058;2023-05-14T10:05:40;3.47;;;1.10;;
71125;SDS011;58785;55.566;38.058;2023-05-14T10:08:19;3.53;;;1.05;;
71125;SDS011;58785;55.566;38.058;2023-05-14T10:10:49;3.20;;;0.90;;
71125;SDS011;58785;55.566;38.058;2023-05-14T10:13:19;3.15;;;1.25;;
71125;SDS011;58785;55.566;38.058;2023-05-14T10:16:21;7.22;;;1.20;;
71125;SDS011;58785;55.566;38.058;2023-05-14T10:18:46;7.93;;;1.80;;
71125;SDS011;58785;55.566;38.058;2023-05-14T10:21:19;4.65;;;1.20;;
71125;SDS011;58785;55.566;38.058;2023-05-14T10:23:46;5.25;;;1.20;;
71125;SDS011;58785;55.566;38.058;2023-05-14T10:26:13;7.05;;;1.20;;
71125;SDS011;58785;55.566;38.058;2023-05-14T10:28:39;7.72;;;1.50;;
71125;SDS011;58785;55.566;38.058;2023-05-14T10:31:08;5.83;;;1.40;;
71125;SDS011;58785;55.566;38.058;2023-05-14T10:34:08;5.85;;;1.63;;
71125;SDS011;58785;55.566;38.058;2023-05-14T10:36:27;7.50;;;1.90;;
71125;SDS011;58785;55.566;38.058;2023-05-14T10:38:55;5.17;;;1.73;;
71125;SDS011;58785;55.566;38.058;2023-05-14T10:41:21;6.67;;;1.33;;
71125;SDS011;58785;55.566;38.058;2023-05-14T10:43:47;5.65;;;1.20;;
71125;SDS011;58785;55.566;38.058;2023-05-14T10:46:13;6.40;;;1.40;;
71125;SDS011;58785;55.566;38.058;2023-05-14T10:48:42;3.87;;;1.20;;
71125;SDS011;58785;55.566;38.058;2023-05-14T10:51:09;5.95;;;1.40;;
71125;SDS011;58785;55.566;38.058;2023-05-14T10:53:41;14.15;;;6.60;;
71125;SDS011;58785;55.566;38.058;2023-05-14T10:56:07;4.93;;;1.73;;
71125;SDS011;58785;55.566;38.058;2023-05-14T10:58:39;19.50;;;10.45;;
71125;SDS011;58785;55.566;38.058;2023-05-14T11:01:07;5.20;;;1.50;;
71125;SDS011;58785;55.566;38.058;2023-05-14T11:03:41;64.93;;;26.85;;
71125;SDS011;58785;55.566;38.058;2023-05-14T11:06:10;49.20;;;19.67;;
71125;SDS011;58785;55.566;38.058;2023-05-14T11:08:37;8.32;;;3.08;;
71125;SDS011;58785;55.566;38.058;2023-05-14T11:11:04;30.77;;;12.77;;
71125;SDS011;58785;55.566;38.058;2023-05-14T11:13:30;4.50;;;1.50;;
71125;SDS011;58785;55.566;38.058;2023-05-14T11:15:57;5.35;;;1.83;;
71125;SDS011;58785;55.566;38.058;2023-05-14T11:18:29;3.50;;;1.20;;
71125;SDS011;58785;55.566;38.058;2023-05-14T11:20:57;4.20;;;1.00;;
71125;SDS011;58785;55.566;38.058;2023-05-14T11:23:24;5.47;;;1.10;;
71125;SDS011;58785;55.566;38.058;2023-05-14T11:25:54;3.93;;;1.00;;
71125;SDS011;58785;55.566;38.058;2023-05-14T11:28:21;6.05;;;0.80;;
71125;SDS011;58785;55.566;38.058;2023-05-14T11:30:48;4.45;;;1.00;;
71125;SDS011;58785;55.566;38.058;2023-05-14T11:33:14;4.28;;;1.20;;
71125;SDS011;58785;55.566;38.058;2023-05-14T11:35:40;4.53;;;1.08;;
71125;SDS011;58785;55.566;38.058;2023-05-14T11:38:19;3.73;;;1.17;;
71125;SDS011;58785;55.566;38.058;2023-05-14T11:40:56;4.55;;;1.15;;
71125;SDS011;58785;55.566;38.058;2023-05-14T11:43:23;4.60;;;1.40;;
71125;SDS011;58785;55.566;38.058;2023-05-14T11:45:53;7.80;;;1.33;;
71125;SDS011;58785;55.566;38.058;2023-05-14T11:48:20;4.40;;;1.40;;
71125;SDS011;58785;55.566;38.058;2023-05-14T11:50:48;4.67;;;1.53;;
71125;SDS011;58785;55.566;38.058;2023-05-14T11:53:18;4.68;;;1.20;;
71125;SDS011;58785;55.566;38.058;2023-05-14T11:55:48;3.95;;;0.90;;
71125;SDS011;58785;55.566;38.058;2023-05-14T11:58:14;3.67;;;1.17;;
71125;SDS011;58785;55.566;38.058;2023-05-14T12:00:43;3.83;;;1.23;;
71125;SDS011;58785;55.566;38.058;2023-05-14T12:03:09;4.70;;;1.10;;
71125;SDS011;58785;55.566;38.058;2023-05-14T12:05:38;5.47;;;1.80;;
71125;SDS011;58785;55.566;38.058;2023-05-14T12:08:20;4.80;;;0.95;;
71125;SDS011;58785;55.566;38.058;2023-05-14T12:10:47;3.67;;;1.08;;
71125;SDS011;58785;55.566;38.058;2023-05-14T12:13:16;3.67;;;1.20;;
71125;SDS011;58785;55.566;38.058;2023-05-14T12:15:58;3.90;;;1.23;;
71125;SDS011;58785;55.566;38.058;2023-05-14T12:18:27;3.63;;;0.93;;
71125;SDS011;58785;55.566;38.058;2023-05-14T12:20:54;5.03;;;1.00;;
71125;SDS011;58785;55.566;38.058;2023-05-14T12:23:27;8.53;;;1.50;;
71125;SDS011;58785;55.566;38.058;2023-05-14T12:25:59;4.70;;;1.33;;
71125;SDS011;58785;55.566;38.058;2023-05-14T12:28:28;5.47;;;1.50;;
71125;SDS011;58785;55.566;38.058;2023-05-14T12:30:57;3.40;;;1.10;;
71125;SDS011;58785;55.566;38.058;2023-05-14T12:33:24;4.87;;;0.83;;
71125;SDS011;58785;55.566;38.058;2023-05-14T12:35:53;3.50;;;0.88;;
71125;SDS011;58785;55.566;38.058;2023-05-14T12:38:26;3.97;;;1.20;;
71125;SDS011;58785;55.566;38.058;2023-05-14T12:40:52;4.00;;;1.38;;
71125;SDS011;58785;55.566;38.058;2023-05-14T12:43:18;6.17;;;1.60;;
71125;SDS011;58785;55.566;38.058;2023-05-14T12:45:44;5.32;;;1.10;;
71125;SDS011;58785;55.566;38.058;2023-05-14T12:48:09;3.95;;;1.15;;
71125;SDS011;58785;55.566;38.058;2023-05-14T12:50:35;5.63;;;1.40;;
71125;SDS011;58785;55.566;38.058;2023-05-14T12:53:01;6.05;;;1.20;;
71125;SDS011;58785;55.566;38.058;2023-05-14T12:55:27;4.67;;;1.30;;
71125;SDS011;58785;55.566;38.058;2023-05-14T12:57:53;4.25;;;1.00;;
71125;SDS011;58785;55.566;38.058;2023-05-14T13:00:19;7.25;;;1.20;;
71125;SDS011;58785;55.566;38.058;2023-05-14T13:02:44;8.17;;;0.90;;
71125;SDS011;58785;55.566;38.058;2023-05-14T13:05:10;4.07;;;1.20;;
71125;SDS011;58785;55.566;38.058;2023-05-14T13:07:37;5.50;;;1.60;;
71125;SDS011;58785;55.566;38.058;2023-05-14T13:10:03;4.57;;;1.23;;
71125;SDS011;58785;55.566;38.058;2023-05-14T13:12:32;4.90;;;1.25;;
71125;SDS011;58785;55.566;38.058;2023-05-14T13:14:58;4.35;;;1.20;;
71125;SDS011;58785;55.566;38.058;2023-05-14T13:17:24;3.37;;;1.00;;
71125;SDS011;58785;55.566;38.058;2023-05-14T13:19:49;3.95;;;1.20;;
71125;SDS011;58785;55.566;38.058;2023-05-14T13:22:15;5.85;;;1.40;;
71125;SDS011;58785;55.566;38.058;2023-05-14T13:24:43;4.13;;;1.40;;
71125;SDS011;58785;55.566;38.058;2023-05-14T13:27:09;5.28;;;1.48;;
71125;SDS011;58785;55.566;38.058;2023-05-14T13:29:34;3.37;;;1.13;;
71125;SDS011;58785;55.566;38.058;2023-05-14T13:32:00;4.40;;;1.80;;
71125;SDS011;58785;55.566;38.058;2023-05-14T13:34:26;4.43;;;1.60;;
71125;SDS011;58785;55.566;38.058;2023-05-14T13:36:51;4.53;;;1.38;;
71125;SDS011;58785;55.566;38.058;2023-05-14T13:39:17;4.43;;;1.30;;
71125;SDS011;58785;55.566;38.058;2023-05-14T13:41:47;3.70;;;1.30;;
71125;SDS011;58785;55.566;38.058;2023-05-14T13:44:15;4.57;;;1.83;;
71125;SDS011;58785;55.566;38.058;2023-05-14T13:46:41;4.03;;;1.42;;
71125;SDS011;58785;55.566;38.058;2023-05-14T13:49:07;5.82;;;1.20;;
71125;SDS011;58785;55.566;38.058;2023-05-14T13:51:33;8.17;;;5.40;;
71125;SDS011;58785;55.566;38.058;2023-05-14T13:53:59;11.55;;;4.13;;
71125;SDS011;58785;55.566;38.058;2023-05-14T13:56:24;21.30;;;9.83;;
71125;SDS011;58785;55.566;38.058;2023-05-14T13:58:50;46.35;;;26.90;;
71125;SDS011;58785;55.566;38.058;2023-05-14T14:01:17;34.72;;;16.27;;
71125;SDS011;58785;55.566;38.058;2023-05-14T14:03:42;35.07;;;14.60;;
71125;SDS011;58785;55.566;38.058;2023-05-14T14:06:08;14.73;;;4.97;;
71125;SDS011;58785;55.566;38.058;2023-05-14T14:08:33;9.33;;;3.50;;
71125;SDS011;58785;55.566;38.058;2023-05-14T14:11:00;10.07;;;4.03;;
71125;SDS011;58785;55.566;38.058;2023-05-14T14:13:25;9.77;;;3.93;;
71125;SDS011;58785;55.566;38.058;2023-05-14T14:15:52;46.17;;;14.23;;
71125;SDS011;58785;55.566;38.058;2023-05-14T14:18:18;9.77;;;4.22;;
71125;SDS011;58785;55.566;38.058;2023-05-14T14:20:43;15.63;;;8.90;;
71125;SDS011;58785;55.566;38.058;2023-05-14T14:23:09;13.80;;;9.57;;
71125;SDS011;58785;55.566;38.058;2023-05-14T14:25:34;11.57;;;9.20;;
71125;SDS011;58785;55.566;38.058;2023-05-14T14:28:00;7.07;;;4.50;;
71125;SDS011;58785;55.566;38.058;2023-05-14T14:30:25;27.08;;;14.23;;
71125;SDS011;58785;55.566;38.058;2023-05-14T14:32:51;18.20;;;11.80;;
71125;SDS011;58785;55.566;38.058;2023-05-14T14:35:18;17.05;;;11.68;;
71125;SDS011;58785;55.566;38.058;2023-05-14T14:37:44;12.73;;;7.15;;